createdAt,value
2019-03-11T00:10:26.871Z,12.44
2019-03-11T00:25:29.620Z,12.64
2019-03-11T00:40:33.384Z,12.70
2019-03-11T00:55:35.939Z,12.53
2019-03-11T01:10:38.650Z,12.08
2019-03-11T01:25:41.469Z,12.04
2019-03-11T01:40:44.144Z,11.99
2019-03-11T01:55:47.679Z,12.01
2019-03-11T02:10:50.289Z,11.77
2019-03-11T02:25:53.397Z,11.73
2019-03-11T02:40:56.777Z,11.47
2019-03-11T02:55:59.341Z,11.39
2019-03-11T03:11:05.272Z,11.18
2019-03-11T03:26:07.846Z,11.27
2019-03-11T03:41:10.480Z,10.20
2019-03-11T03:56:13.224Z,9.03
2019-03-11T04:11:16.530Z,8.27
2019-03-11T04:26:19.188Z,7.89
2019-03-11T04:41:21.810Z,7.32
2019-03-11T04:56:26.262Z,7.25
2019-03-11T05:11:29.765Z,7.92
2019-03-11T05:26:33.998Z,8.29
2019-03-11T05:41:37.642Z,9.53
2019-03-11T05:56:40.473Z,10.51
2019-03-11T06:11:43.027Z,12.46
2019-03-11T06:26:46.192Z,13.75
2019-03-11T06:41:49.500Z,14.69
2019-03-11T06:56:52.082Z,14.86
2019-03-11T07:11:54.638Z,17.34
2019-03-11T07:26:57.204Z,22.20
2019-03-11T07:41:59.753Z,21.24
2019-03-11T07:57:02.301Z,18.57
2019-03-11T08:12:05.699Z,16.79
2019-03-11T08:27:09.804Z,18.32
2019-03-11T08:42:12.364Z,20.73
2019-03-11T08:57:14.926Z,22.45
2019-03-11T09:12:24.290Z,23.37
2019-03-11T09:27:26.845Z,23.57
2019-03-11T09:42:29.420Z,25.12
2019-03-11T09:57:31.964Z,19.33
2019-03-11T10:12:35.186Z,18.90
2019-03-11T10:27:38.041Z,18.72
2019-03-11T10:42:40.594Z,17.77
2019-03-11T10:57:44.312Z,16.17
2019-03-11T11:12:47.682Z,16.45
2019-03-11T11:27:50.571Z,16.52
2019-03-11T11:42:53.246Z,18.06
2019-03-11T11:57:55.793Z,18.68
2019-03-11T12:13:00.692Z,20.03
2019-03-11T12:28:04.036Z,20.74
2019-03-11T12:43:07.059Z,20.90
2019-03-11T12:58:10.005Z,20.27
2019-03-11T13:13:14.422Z,18.90
2019-03-11T13:28:16.985Z,18.30
2019-03-11T13:43:19.551Z,17.61
2019-03-11T13:58:22.178Z,17.17
2019-03-11T14:13:25.400Z,16.07
2019-03-11T14:28:27.968Z,15.16
2019-03-11T14:43:30.550Z,14.41
2019-03-11T14:58:34.088Z,13.58
2019-03-11T15:13:37.464Z,12.56
2019-03-11T15:28:40.898Z,11.47
2019-03-11T15:43:43.509Z,10.48
2019-03-11T15:58:46.185Z,9.69
2019-03-11T16:13:50.859Z,9.13
2019-03-11T16:28:53.426Z,8.68
2019-03-11T16:43:56.108Z,8.24
2019-03-11T16:59:00.680Z,7.76
2019-03-11T17:14:03.265Z,7.51
2019-03-11T17:29:07.064Z,6.86
2019-03-11T17:44:11.273Z,6.56
2019-03-11T17:59:13.863Z,6.06
2019-03-11T18:14:17.299Z,5.87
2019-03-11T18:29:20.172Z,6.00
2019-03-11T18:44:22.750Z,5.90
2019-03-11T18:59:28.390Z,5.60
2019-03-11T19:14:30.994Z,5.56
2019-03-11T19:29:33.665Z,5.37
2019-03-11T19:44:37.762Z,5.10
2019-03-11T19:59:41.231Z,4.97
2019-03-11T20:14:44.340Z,4.81
2019-03-11T20:29:47.644Z,4.84
2019-03-11T20:44:51.153Z,4.87
2019-03-11T20:59:53.823Z,4.52
2019-03-11T21:14:56.483Z,4.16
2019-03-11T21:30:01.324Z,4.08
2019-03-11T21:45:05.275Z,3.62
2019-03-11T22:00:12.360Z,3.47
2019-03-11T22:15:24.092Z,3.38
2019-03-11T22:30:27.509Z,3.37
2019-03-11T22:45:31.549Z,2.95
2019-03-11T23:00:50.165Z,2.84
2019-03-11T23:15:52.718Z,2.80
2019-03-11T23:30:55.758Z,2.74
2019-03-11T23:45:58.323Z,2.84
